Time;durP1;ratioP1;P1;durP2;ratioP2;P2;SDS_P1;SDS_P2;PMS_P1;PMS_P2;Temp;Humidity;BMP_temperature;BMP_pressure;BME280_temperature;BME280_humidity;BME280_pressure;Samples;Min_cycle;Max_cycle;Signal;HPM_P1;HPM_P2
2021/07/26 00:00:57;;;;;;;6.28;5.57;;;;;;;17.17;84.79;100964.84;5037085;28;20041;-63
2021/07/26 00:03:23;;;;;;;8.02;5.78;;;;;;;17.16;84.43;100961.28;5037261;28;20168;-62
2021/07/26 00:05:58;;;;;;;7.43;5.70;;;;;;;17.15;84.66;100956.91;5036575;28;20100;-64
2021/07/26 00:08:24;;;;;;;6.43;5.55;;;;;;;17.14;84.34;100952.50;5038309;28;20041;-63
2021/07/26 00:11:00;;;;;;;7.50;5.45;;;;;;;17.12;84.69;100955.19;5037699;28;20038;-63
2021/07/26 00:13:27;;;;;;;7.65;5.82;;;;;;;17.11;84.64;100957.91;5036826;28;20579;-63
2021/07/26 00:15:52;;;;;;;7.65;5.70;;;;;;;17.09;84.52;100952.63;5051845;28;20097;-63
2021/07/26 00:18:17;;;;;;;9.02;5.78;;;;;;;17.06;84.67;100949.19;5035532;28;20298;-63
2021/07/26 00:20:43;;;;;;;7.88;6.00;;;;;;;17.01;84.60;100946.63;5037053;28;20038;-64
2021/07/26 00:23:08;;;;;;;7.60;6.15;;;;;;;17.01;85.03;100951.94;5036772;28;20033;-63
2021/07/26 00:25:33;;;;;;;9.23;7.07;;;;;;;16.99;84.72;100948.47;5035228;28;20176;-63
2021/07/26 00:27:59;;;;;;;9.75;6.88;;;;;;;17.00;85.17;100944.91;5042527;28;20033;-63
2021/07/26 00:30:24;;;;;;;9.48;7.57;;;;;;;17.02;85.49;100953.69;5036718;28;20057;-63
2021/07/26 00:32:49;;;;;;;8.55;7.20;;;;;;;17.06;85.49;100952.69;5036423;28;20033;-63
2021/07/26 00:35:15;;;;;;;8.43;7.47;;;;;;;17.10;85.43;100951.69;5036519;28;20032;-63
2021/07/26 00:37:40;;;;;;;9.00;7.38;;;;;;;17.11;85.36;100950.81;5036148;28;20664;-64
2021/07/26 00:40:09;;;;;;;7.55;6.82;;;;;;;17.16;85.34;100950.66;5044059;28;20044;-64
2021/07/26 00:42:36;;;;;;;10.05;7.30;;;;;;;17.17;85.28;100936.50;5043921;28;20049;-64
2021/07/26 00:45:03;;;;;;;8.85;7.60;;;;;;;17.17;84.61;100943.59;5048089;28;20026;-63
2021/07/26 00:47:28;;;;;;;7.45;6.70;;;;;;;17.18;85.02;100940.88;5047979;28;20029;-63
2021/07/26 00:49:54;;;;;;;9.63;7.03;;;;;;;17.17;84.78;100940.94;5047903;28;20504;-63
2021/07/26 00:52:19;;;;;;;12.10;7.38;;;;;;;17.13;84.71;100934.84;5047829;28;20031;-63
2021/07/26 00:54:45;;;;;;;8.88;7.05;;;;;;;17.10;84.65;100934.91;5047956;28;20033;-64
2021/07/26 00:57:12;;;;;;;8.63;7.32;;;;;;;17.06;84.77;100930.59;5047805;28;20084;-63
2021/07/26 00:59:37;;;;;;;12.32;7.45;;;;;;;17.00;84.79;100929.00;5038346;28;20030;-63
2021/07/26 01:02:03;;;;;;;8.52;7.60;;;;;;;16.96;84.99;100930.00;5033881;28;20075;-63
2021/07/26 01:04:29;;;;;;;9.77;7.30;;;;;;;16.91;85.12;100929.22;5036911;28;20078;-63
2021/07/26 01:06:55;;;;;;;8.52;7.32;;;;;;;16.87;84.93;100924.91;5036780;28;20056;-64
2021/07/26 01:09:20;;;;;;;9.10;7.22;;;;;;;16.83;85.19;100932.09;5036272;28;20070;-62
2021/07/26 01:11:46;;;;;;;10.60;8.38;;;;;;;16.84;85.24;100925.88;5040584;28;20038;-63
2021/07/26 01:14:16;;;;;;;10.15;8.05;;;;;;;16.84;85.11;100923.22;5047654;28;20041;-63
2021/07/26 01:16:43;;;;;;;11.10;8.73;;;;;;;16.81;85.17;100915.31;5047587;28;20036;-63
2021/07/26 01:19:09;;;;;;;9.55;7.70;;;;;;;16.76;85.00;100910.09;5047433;28;20033;-63
2021/07/26 01:21:34;;;;;;;9.38;8.23;;;;;;;16.75;85.21;100923.44;5047251;28;20037;-63
2021/07/26 01:24:01;;;;;;;12.95;8.88;;;;;;;16.74;85.29;100924.31;5047316;28;20030;-63
2021/07/26 01:26:28;;;;;;;13.25;8.23;;;;;;;16.71;85.18;100927.94;5047259;28;20040;-64
2021/07/26 01:29:00;;;;;;;10.60;7.90;;;;;;;16.69;85.15;100916.50;5043305;28;20040;-64
2021/07/26 01:31:25;;;;;;;11.80;8.45;;;;;;;16.69;85.37;100923.56;5035020;28;20060;-63
2021/07/26 01:33:52;;;;;;;10.57;9.32;;;;;;;16.68;85.21;100928.00;5035435;28;20041;-63
2021/07/26 01:36:18;;;;;;;11.30;9.32;;;;;;;16.68;85.22;100919.19;5034876;28;20033;-63
2021/07/26 01:38:45;;;;;;;12.38;9.98;;;;;;;16.69;85.17;100924.47;5039235;28;20036;-63
2021/07/26 01:41:17;;;;;;;12.45;10.73;;;;;;;16.67;85.13;100931.59;5043788;28;20045;-64
2021/07/26 01:44:02;;;;;;;15.80;11.88;;;;;;;16.68;85.93;100924.50;5046893;28;20025;-62
2021/07/26 01:47:03;;;;;;;16.08;14.23;;;;;;;16.74;86.33;100933.16;5047032;28;20025;-63
2021/07/26 01:49:48;;;;;;;14.65;12.15;;;;;;;16.77;85.76;100927.78;4985462;28;20534;-63
2021/07/26 01:52:13;;;;;;;12.40;10.93;;;;;;;16.79;85.64;100929.53;4985581;28;20038;-63
2021/07/26 01:54:39;;;;;;;13.80;12.35;;;;;;;16.80;85.65;100931.25;4985701;28;20038;-63
2021/07/26 01:57:05;;;;;;;17.15;12.82;;;;;;;16.80;85.55;100929.47;4985422;28;20050;-63
2021/07/26 01:59:31;;;;;;;17.15;13.02;;;;;;;16.83;85.72;100940.03;4967141;28;20047;-63
2021/07/26 02:01:57;;;;;;;15.05;12.10;;;;;;;16.84;85.75;100927.63;4985265;28;20050;-63
2021/07/26 02:04:22;;;;;;;18.17;13.95;;;;;;;16.85;85.83;100934.72;4985544;28;20027;-63
2021/07/26 02:06:48;;;;;;;16.52;13.15;;;;;;;16.85;85.89;100937.34;4985381;28;20046;-64
2021/07/26 02:09:14;;;;;;;16.60;13.52;;;;;;;16.87;85.80;100935.53;4985204;28;20042;-64
2021/07/26 02:11:39;;;;;;;19.27;14.18;;;;;;;16.90;85.84;100935.44;4985045;28;20058;-62
2021/07/26 02:14:09;;;;;;;17.83;15.43;;;;;;;16.94;85.96;100934.47;4984752;28;20043;-64
2021/07/26 02:16:36;;;;;;;21.35;17.65;;;;;;;16.95;85.99;100928.22;4985275;28;20130;-62
2021/07/26 02:19:01;;;;;;;25.58;19.73;;;;;;;16.99;86.32;100926.38;4984863;28;20058;-63
2021/07/26 02:21:27;;;;;;;21.30;17.10;;;;;;;17.01;86.29;100925.41;4984876;28;20042;-64
2021/07/26 02:23:52;;;;;;;23.92;19.33;;;;;;;17.03;86.21;100925.38;4985118;28;20045;-64
2021/07/26 02:26:17;;;;;;;22.23;18.00;;;;;;;17.06;86.10;100923.50;5020271;28;20033;-63
2021/07/26 02:28:43;;;;;;;22.00;19.45;;;;;;;17.07;86.12;100924.38;5038429;28;20079;-63
2021/07/26 02:31:08;;;;;;;27.05;19.20;;;;;;;17.09;85.98;100923.44;5026084;28;20030;-63
2021/07/26 02:33:33;;;;;;;24.88;19.70;;;;;;;17.09;85.99;100922.56;5026354;28;20021;-63
2021/07/26 02:35:59;;;;;;;24.00;19.33;;;;;;;17.09;86.03;100931.41;5045021;28;20080;-63
2021/07/26 02:38:24;;;;;;;30.48;21.60;;;;;;;17.11;85.96;100920.75;5045846;28;20025;-63
2021/07/26 02:40:49;;;;;;;25.00;19.90;;;;;;;17.12;86.05;100927.78;5043910;28;20067;-63
2021/07/26 02:43:15;;;;;;;27.75;21.58;;;;;;;17.12;85.95;100928.63;5028098;28;20037;-63
2021/07/26 02:45:40;;;;;;;24.85;21.52;;;;;;;17.14;85.60;100929.50;5045808;28;20029;-63
2021/07/26 02:48:06;;;;;;;29.40;22.40;;;;;;;17.14;85.75;100937.47;5045875;28;20061;-63
2021/07/26 02:50:31;;;;;;;24.23;21.40;;;;;;;17.15;85.77;100927.69;5045625;28;20432;-64
2021/07/26 02:53:00;;;;;;;26.70;20.75;;;;;;;17.15;85.75;100931.22;5044456;28;20040;-63
2021/07/26 02:55:27;;;;;;;25.03;20.47;;;;;;;17.14;85.54;100925.94;5045465;28;20037;-63
2021/07/26 02:57:53;;;;;;;27.20;21.05;;;;;;;17.12;85.91;100928.63;5045459;28;20076;-63
2021/07/26 03:00:19;;;;;;;25.40;20.92;;;;;;;17.12;85.93;100928.63;5045382;28;20037;-62
2021/07/26 03:02:44;;;;;;;25.88;22.00;;;;;;;17.12;86.22;100928.63;5045629;28;20078;-63
2021/07/26 03:05:10;;;;;;;30.95;22.10;;;;;;;17.09;86.19;100934.06;5045586;28;20057;-63
2021/07/26 03:07:35;;;;;;;27.88;22.35;;;;;;;17.10;86.20;100930.47;5045547;28;20030;-63
2021/07/26 03:10:00;;;;;;;27.73;22.45;;;;;;;17.13;86.33;100932.19;5042881;28;20059;-63
2021/07/26 03:12:26;;;;;;;31.35;23.65;;;;;;;17.15;86.15;100938.31;5045455;28;20037;-64
2021/07/26 03:14:51;;;;;;;32.20;24.00;;;;;;;17.17;86.39;100941.81;5045350;28;20033;-63
2021/07/26 03:17:16;;;;;;;31.00;24.63;;;;;;;17.17;86.18;100940.94;5044030;28;20034;-63
2021/07/26 03:19:42;;;;;;;26.00;23.13;;;;;;;17.19;85.77;100942.63;5045252;28;20037;-63
2021/07/26 03:22:49;;;;;;;31.63;24.90;;;;;;;17.22;86.02;100942.56;5045224;28;20052;-63
2021/07/26 03:25:14;;;;;;;30.50;25.63;;;;;;;17.21;86.19;100940.81;5045046;28;20551;-63
2021/07/26 03:27:40;;;;;;;30.63;24.40;;;;;;;17.22;86.14;100949.63;5045350;28;20025;-62
2021/07/26 03:30:06;;;;;;;30.30;24.63;;;;;;;17.21;86.04;100943.44;5045068;28;20030;-63
2021/07/26 03:32:31;;;;;;;30.42;24.85;;;;;;;17.24;86.30;100947.78;5045002;28;20393;-63
2021/07/26 03:34:56;;;;;;;31.65;25.35;;;;;;;17.24;86.18;100956.66;5045234;28;20034;-63
2021/07/26 03:37:22;;;;;;;34.08;25.48;;;;;;;17.22;86.28;100965.56;5045189;28;20092;-64
2021/07/26 03:39:47;;;;;;;31.05;26.30;;;;;;;17.21;86.61;100958.53;5042973;28;20425;-63
2021/07/26 03:42:13;;;;;;;33.38;25.05;;;;;;;17.23;86.69;100956.69;5044926;28;20049;-63
2021/07/26 03:44:38;;;;;;;32.83;24.80;;;;;;;17.26;86.51;100953.97;5045009;28;20021;-63
2021/07/26 03:47:04;;;;;;;30.13;24.58;;;;;;;17.26;86.24;100953.97;5045067;28;20087;-63
2021/07/26 03:49:29;;;;;;;32.10;25.50;;;;;;;17.25;86.31;100963.69;5044900;28;20026;-63
2021/07/26 03:51:55;;;;;;;35.42;25.92;;;;;;;17.22;86.37;100953.19;5044903;28;20026;-63
2021/07/26 03:54:20;;;;;;;33.00;24.88;;;;;;;17.22;86.60;100953.19;5042439;28;20481;-63
2021/07/26 03:56:45;;;;;;;33.90;25.75;;;;;;;17.24;86.90;100955.75;5044688;28;20461;-63
2021/07/26 03:59:11;;;;;;;32.08;24.75;;;;;;;17.25;86.44;100962.84;5044885;28;20040;-64
2021/07/26 04:01:36;;;;;;;34.40;26.80;;;;;;;17.27;86.62;100961.00;5043350;28;20413;-63
2021/07/26 04:04:01;;;;;;;28.55;24.17;;;;;;;17.29;86.33;100952.06;5044966;28;20036;-63
2021/07/26 04:06:27;;;;;;;28.27;23.33;;;;;;;17.33;86.56;100950.19;5044883;28;20485;-63
2021/07/26 04:08:54;;;;;;;30.33;24.42;;;;;;;17.33;86.35;100964.38;5044701;28;20532;-63
2021/07/26 04:13:45;;;;;;;32.85;24.45;;;;;;;17.31;85.96;100962.66;5044660;28;20029;-63
2021/07/26 04:16:10;;;;;;;31.70;24.45;;;;;;;17.29;86.11;100954.72;5028682;28;20482;-62
2021/07/26 04:18:36;;;;;;;29.13;23.38;;;;;;;17.30;86.26;100966.25;5024902;28;20034;-63
2021/07/26 04:21:08;;;;;;;28.75;24.10;;;;;;;17.29;86.14;100957.38;5024684;28;20030;-63
2021/07/26 04:23:34;;;;;;;29.83;23.52;;;;;;;17.28;86.05;100952.13;5024956;28;20026;-62
2021/07/26 04:26:00;;;;;;;29.33;23.75;;;;;;;17.27;86.31;100961.00;5039967;28;20084;-64
2021/07/26 04:28:25;;;;;;;30.00;24.05;;;;;;;17.25;86.07;100955.72;5024874;28;20036;-64
2021/07/26 04:30:51;;;;;;;31.13;25.00;;;;;;;17.26;86.22;100949.53;5024638;28;20038;-63
2021/07/26 04:33:16;;;;;;;31.55;24.95;;;;;;;17.28;86.20;100954.78;5044470;28;20036;-63
2021/07/26 04:35:41;;;;;;;33.15;25.98;;;;;;;17.28;86.29;100952.13;5045384;28;20034;-62
2021/07/26 04:38:07;;;;;;;33.70;26.75;;;;;;;17.30;86.29;100947.66;5048109;28;20029;-63
2021/07/26 04:40:32;;;;;;;35.50;26.35;;;;;;;17.32;86.56;100945.81;5043374;28;20033;-62
2021/07/26 04:42:58;;;;;;;32.10;25.35;;;;;;;17.35;86.32;100948.38;5048114;28;20454;-63
2021/07/26 04:45:23;;;;;;;33.05;25.27;;;;;;;17.40;86.09;100945.59;5048055;28;20029;-63
2021/07/26 04:47:49;;;;;;;31.48;24.80;;;;;;;17.43;86.01;100945.50;5048009;28;20038;-62
2021/07/26 04:50:14;;;;;;;34.15;26.27;;;;;;;17.46;85.88;100943.63;5047982;28;20034;-62
2021/07/26 04:52:39;;;;;;;33.67;26.83;;;;;;;17.50;86.12;100944.41;5047755;28;20021;-62
2021/07/26 04:55:05;;;;;;;34.45;25.63;;;;;;;17.53;86.17;100947.00;5047697;28;20063;-63
2021/07/26 04:57:31;;;;;;;33.22;26.80;;;;;;;17.55;86.38;100947.81;5047601;28;20060;-63
2021/07/26 04:59:56;;;;;;;33.28;26.92;;;;;;;17.57;85.98;100940.66;5047780;28;20065;-64
2021/07/26 05:02:21;;;;;;;36.40;27.50;;;;;;;17.57;86.03;100931.84;5047620;28;20116;-63
2021/07/26 05:04:47;;;;;;;33.60;25.65;;;;;;;17.63;85.66;100942.28;5047690;28;20443;-63
2021/07/26 05:07:12;;;;;;;38.22;26.65;;;;;;;17.69;85.47;100942.09;5047746;28;20025;-63
2021/07/26 05:09:38;;;;;;;35.13;26.23;;;;;;;17.74;85.87;100943.69;5045197;28;20091;-65
2021/07/26 05:12:13;;;;;;;34.30;25.92;;;;;;;17.79;85.56;100942.69;5047310;28;20068;-65
2021/07/26 05:14:40;;;;;;;38.70;27.77;;;;;;;17.81;85.84;100933.75;5047590;28;20030;-63
2021/07/26 05:17:05;;;;;;;35.15;26.25;;;;;;;17.82;85.63;100937.28;5047625;28;20040;-62
2021/07/26 05:19:31;;;;;;;28.38;24.92;;;;;;;17.83;85.03;100953.19;5047435;28;20053;-62
2021/07/26 05:21:56;;;;;;;32.20;25.63;;;;;;;17.87;85.30;100957.53;5047106;28;20037;-62
2021/07/26 05:24:24;;;;;;;33.28;26.23;;;;;;;17.88;84.96;100956.63;5047474;28;20040;-62
2021/07/26 05:26:56;;;;;;;32.70;25.58;;;;;;;17.86;85.06;100958.47;5047343;28;20079;-62
2021/07/26 05:29:21;;;;;;;32.92;26.67;;;;;;;17.82;85.45;100956.75;5047381;28;20021;-65
2021/07/26 05:31:47;;;;;;;33.40;26.23;;;;;;;17.82;85.70;100963.84;5047043;28;20037;-62
2021/07/26 05:34:12;;;;;;;35.63;27.48;;;;;;;17.79;85.41;100959.50;5047338;28;20044;-61
2021/07/26 05:36:37;;;;;;;35.05;27.83;;;;;;;17.80;85.78;100965.69;5047023;28;20026;-63
2021/07/26 05:39:03;;;;;;;34.00;27.25;;;;;;;17.80;85.61;100958.59;5045594;28;20036;-62
2021/07/26 05:41:28;;;;;;;37.38;28.50;;;;;;;17.82;85.56;100961.19;5030644;28;20046;-64
2021/07/26 05:43:53;;;;;;;32.70;26.75;;;;;;;17.82;85.37;100962.06;5027077;28;20040;-64
2021/07/26 05:46:19;;;;;;;33.45;27.17;;;;;;;17.83;85.34;100955.84;5027137;28;20093;-62
2021/07/26 05:48:44;;;;;;;32.38;27.05;;;;;;;17.82;84.95;100955.88;5026068;28;20081;-62
2021/07/26 05:51:10;;;;;;;35.45;28.45;;;;;;;17.81;85.42;100954.16;5026921;28;20030;-62
2021/07/26 05:53:35;;;;;;;36.08;29.30;;;;;;;17.80;85.89;100947.94;5026862;28;20064;-62
2021/07/26 05:56:04;;;;;;;37.58;28.67;;;;;;;17.80;85.47;100955.06;5026763;28;20046;-62
2021/07/26 05:58:31;;;;;;;34.90;27.88;;;;;;;17.84;85.60;100954.06;5041918;28;20021;-62
2021/07/26 06:01:21;;;;;;;30.23;26.88;;;;;;;17.85;84.77;100953.19;5041827;28;20041;-62
2021/07/26 06:03:47;;;;;;;33.53;27.67;;;;;;;17.91;85.30;100953.84;5026520;28;20057;-62
2021/07/26 06:06:12;;;;;;;35.13;29.73;;;;;;;17.97;85.22;100944.81;5026847;28;20500;-62
2021/07/26 06:08:37;;;;;;;35.92;27.95;;;;;;;18.06;85.42;100955.16;5026523;28;20026;-63
2021/07/26 06:11:03;;;;;;;34.03;27.75;;;;;;;18.13;84.29;100945.22;5041293;28;20098;-62
2021/07/26 06:13:29;;;;;;;31.55;26.60;;;;;;;18.21;84.36;100940.53;5046205;28;20026;-63
2021/07/26 06:15:55;;;;;;;33.17;26.50;;;;;;;18.28;84.24;100935.91;5046285;28;20053;-62
2021/07/26 06:18:21;;;;;;;31.70;25.70;;;;;;;18.34;84.08;100943.66;5046191;28;20029;-62
2021/07/26 06:20:46;;;;;;;28.77;24.33;;;;;;;18.39;83.29;100932.88;5046165;28;20056;-61
2021/07/26 06:23:11;;;;;;;29.75;26.15;;;;;;;18.45;83.75;100946.84;5046111;28;20026;-63
2021/07/26 06:25:37;;;;;;;33.40;26.88;;;;;;;18.51;84.51;100949.31;5046192;28;20056;-64
2021/07/26 06:28:03;;;;;;;31.08;26.17;;;;;;;18.58;84.07;100954.41;5045995;28;20034;-64
2021/07/26 06:30:28;;;;;;;33.47;27.05;;;;;;;18.61;84.07;100960.50;5026228;28;20033;-64
2021/07/26 06:32:53;;;;;;;32.88;26.60;;;;;;;18.59;83.90;100958.81;5026135;28;20141;-64
2021/07/26 06:35:20;;;;;;;34.47;27.48;;;;;;;18.57;83.94;100968.66;5025952;28;20077;-64
2021/07/26 06:37:45;;;;;;;34.35;27.90;;;;;;;18.59;84.62;100977.47;5026119;28;20065;-66
2021/07/26 06:40:11;;;;;;;36.30;27.23;;;;;;;18.55;84.19;100983.81;5029639;28;20030;-64
2021/07/26 06:42:36;;;;;;;36.15;26.80;;;;;;;18.47;84.01;100986.72;5025871;28;20045;-65
2021/07/26 06:45:02;;;;;;;31.55;26.60;;;;;;;18.40;83.32;100993.16;5026088;28;20033;-64
2021/07/26 06:47:28;;;;;;;35.92;27.13;;;;;;;18.38;84.02;100987.00;5025702;28;20029;-63
2021/07/26 06:49:53;;;;;;;26.02;20.98;;;;;;;18.42;83.69;100988.66;5025842;28;20031;-63
2021/07/26 06:52:18;;;;;;;28.85;25.17;;;;;;;18.43;83.04;100993.03;5040800;28;20054;-62
2021/07/26 06:54:44;;;;;;;27.45;22.52;;;;;;;18.46;82.61;100995.59;5025765;28;20030;-62
2021/07/26 06:57:09;;;;;;;19.80;16.17;;;;;;;18.47;82.34;100992.91;5040932;28;20050;-62
2021/07/26 06:59:34;;;;;;;18.20;16.30;;;;;;;18.55;82.72;100984.66;5025441;28;20072;-62
2021/07/26 07:02:00;;;;;;;16.45;13.60;;;;;;;18.55;82.47;100992.66;5025425;28;20359;-62
2021/07/26 07:04:25;;;;;;;14.70;11.60;;;;;;;18.56;82.49;100988.19;5025559;28;20096;-63
2021/07/26 07:06:50;;;;;;;8.77;7.88;;;;;;;18.47;81.32;100992.91;5025568;28;20490;-62
2021/07/26 07:09:16;;;;;;;8.43;7.30;;;;;;;18.45;81.32;100997.41;5026643;28;20069;-63
2021/07/26 07:11:41;;;;;;;9.73;8.07;;;;;;;18.37;82.33;101004.72;5036305;28;20048;-61
2021/07/26 07:14:07;;;;;;;10.70;9.02;;;;;;;18.30;82.78;101004.06;5044918;28;20033;-62
2021/07/26 07:16:32;;;;;;;10.57;9.32;;;;;;;18.24;82.89;101012.25;5045271;28;20040;-62
2021/07/26 07:18:58;;;;;;;10.40;9.38;;;;;;;18.23;82.40;101004.31;5045204;28;20041;-62
2021/07/26 07:21:26;;;;;;;11.38;10.27;;;;;;;18.19;82.89;101005.34;5045162;28;20037;-64
2021/07/26 07:23:53;;;;;;;13.55;10.98;;;;;;;18.16;83.41;101002.75;5045052;28;20033;-65
2021/07/26 07:26:20;;;;;;;12.13;10.82;;;;;;;18.15;83.08;100995.69;5045432;28;20041;-65
2021/07/26 07:28:46;;;;;;;12.85;11.55;;;;;;;18.17;83.73;101000.06;5044887;28;20029;-65
2021/07/26 07:31:13;;;;;;;13.52;11.52;;;;;;;18.17;83.72;100994.72;5043912;28;20099;-65
2021/07/26 07:33:39;;;;;;;12.07;10.88;;;;;;;18.17;83.54;100999.19;5044737;28;20025;-65
2021/07/26 07:36:06;;;;;;;14.60;12.13;;;;;;;18.19;83.93;101000.00;5044947;28;20085;-64
2021/07/26 07:38:32;;;;;;;12.48;11.27;;;;;;;18.20;83.59;100991.97;5045198;28;20045;-65
2021/07/26 07:40:58;;;;;;;12.57;9.88;;;;;;;18.15;82.83;100985.94;5041238;28;20037;-64
2021/07/26 07:43:28;;;;;;;14.70;11.25;;;;;;;18.17;82.93;100980.56;5044623;28;20030;-66
2021/07/26 07:45:55;;;;;;;12.68;10.27;;;;;;;18.25;82.96;100983.84;5044808;28;20104;-65
2021/07/26 07:48:24;;;;;;;13.18;11.70;;;;;;;18.30;83.32;100989.91;5044839;28;20033;-66
2021/07/26 07:50:53;;;;;;;;;;;;;;;18.39;83.88;100999.38;5045355;28;20390;-66
2021/07/26 07:53:19;;;;;;;13.55;11.75;;;;;;;18.46;83.14;101007.09;5044747;28;19913;-67
2021/07/26 07:55:45;;;;;;;14.20;11.77;;;;;;;18.57;83.83;101003.25;5044856;28;20105;-66
2021/07/26 07:58:10;;;;;;;13.95;12.45;;;;;;;18.66;82.59;101002.94;5044988;28;20026;-63
2021/07/26 08:00:36;;;;;;;16.90;14.45;;;;;;;18.77;83.79;101005.25;5044621;28;20116;-64
2021/07/26 08:03:02;;;;;;;15.90;13.43;;;;;;;18.93;83.24;101010.97;5044558;28;20383;-64
2021/07/26 08:05:27;;;;;;;19.33;15.45;;;;;;;19.16;84.28;101012.84;5044715;28;20116;-66
2021/07/26 08:07:53;;;;;;;20.80;15.57;;;;;;;19.42;84.30;101010.13;5044691;28;20048;-64
2021/07/26 08:10:18;;;;;;;18.25;16.27;;;;;;;19.75;83.47;101009.84;5043332;28;20063;-66
2021/07/26 08:12:44;;;;;;;13.80;11.43;;;;;;;20.04;81.48;101005.22;5048308;28;20021;-66
2021/07/26 08:15:10;;;;;;;18.48;14.13;;;;;;;20.25;77.63;101007.03;5048492;28;20025;-67
2021/07/26 08:17:43;;;;;;;16.73;15.02;;;;;;;20.22;78.87;101009.81;5048359;28;20033;-65
2021/07/26 08:20:11;;;;;;;14.65;13.07;;;;;;;20.32;77.50;101013.03;5045818;28;20041;-63
2021/07/26 08:22:37;;;;;;;15.80;13.43;;;;;;;20.38;75.64;101010.09;5048323;28;20033;-63
2021/07/26 08:25:05;;;;;;;15.63;13.10;;;;;;;20.48;77.10;101004.41;5045821;28;20029;-63
2021/07/26 08:27:30;;;;;;;16.52;13.38;;;;;;;20.57;76.81;101014.69;5037000;28;20038;-62
2021/07/26 08:29:56;;;;;;;14.70;12.68;;;;;;;20.71;75.95;101015.03;5037793;28;20052;-62
2021/07/26 08:32:21;;;;;;;13.65;12.15;;;;;;;20.81;76.33;101011.06;5038244;28;20057;-62
2021/07/26 08:34:47;;;;;;;17.42;15.07;;;;;;;20.83;77.80;101002.94;5047849;28;20030;-62
2021/07/26 08:37:12;;;;;;;16.83;14.07;;;;;;;20.76;76.12;100996.16;5030499;28;20033;-61
2021/07/26 08:39:39;;;;;;;14.27;12.65;;;;;;;20.54;74.50;100994.31;5046042;28;20035;-62
2021/07/26 08:42:05;;;;;;;14.57;12.75;;;;;;;20.39;75.18;100995.81;5046290;28;20064;-62
2021/07/26 08:44:33;;;;;;;19.05;15.18;;;;;;;20.32;77.92;100998.78;5047769;28;20081;-62
2021/07/26 08:46:59;;;;;;;19.23;14.88;;;;;;;20.22;76.97;101001.81;5047789;28;20049;-62
2021/07/26 08:49:28;;;;;;;18.30;15.20;;;;;;;20.14;78.22;100995.06;5047807;28;20030;-63
2021/07/26 08:51:56;;;;;;;15.70;14.07;;;;;;;20.05;78.21;100998.94;5047886;28;20025;-63
2021/07/26 08:54:23;;;;;;;16.55;14.77;;;;;;;20.09;78.41;100995.22;5047438;28;20053;-62
2021/07/26 08:56:51;;;;;;;18.13;14.15;;;;;;;20.30;79.04;100993.50;5047369;28;20051;-62
2021/07/26 08:59:16;;;;;;;15.32;13.57;;;;;;;20.38;77.31;100993.22;5046270;28;20033;-62
2021/07/26 09:01:43;;;;;;;15.82;14.10;;;;;;;20.50;78.59;100995.38;5046996;28;20026;-62
2021/07/26 09:04:08;;;;;;;17.48;14.88;;;;;;;20.54;76.94;100997.00;5047353;28;20053;-63
2021/07/26 09:06:34;;;;;;;14.95;13.40;;;;;;;20.54;77.33;101006.81;5047234;28;20056;-63
2021/07/26 09:08:59;;;;;;;16.73;14.20;;;;;;;20.61;76.81;100995.00;5047261;28;20033;-62
2021/07/26 09:11:25;;;;;;;16.83;13.50;;;;;;;20.79;76.35;100993.34;5047241;28;20040;-62
2021/07/26 09:13:50;;;;;;;17.30;13.60;;;;;;;21.13;76.54;100999.91;5047423;28;20650;-62
2021/07/26 09:16:20;;;;;;;19.15;13.93;;;;;;;21.25;75.88;100996.72;5047207;28;20033;-62
2021/07/26 09:18:47;;;;;;;14.13;12.48;;;;;;;21.40;75.26;101000.53;5047527;28;20037;-62
2021/07/26 09:21:13;;;;;;;13.32;10.20;;;;;;;21.57;73.68;100998.00;5046996;28;20512;-62
2021/07/26 09:24:03;;;;;;;10.50;9.38;;;;;;;21.74;72.51;101005.25;5047052;28;20031;-62
2021/07/26 09:26:28;;;;;;;9.00;8.10;;;;;;;22.04;71.51;100994.06;5029755;28;20034;-63
2021/07/26 09:28:53;;;;;;;13.90;7.15;;;;;;;22.35;68.32;100995.31;5027278;28;20041;-62
2021/07/26 09:31:19;;;;;;;8.65;6.72;;;;;;;22.48;65.87;100991.09;5027180;28;20136;-63
2021/07/26 09:33:44;;;;;;;9.23;7.22;;;;;;;22.68;66.96;101000.78;5027323;28;20038;-63
2021/07/26 09:36:18;;;;;;;7.13;6.47;;;;;;;22.81;66.01;101001.06;5027254;28;20086;-63
2021/07/26 09:38:58;;;;;;;5.80;5.20;;;;;;;22.90;65.09;100999.72;5027320;28;20041;-63
2021/07/26 09:42:00;;;;;;;6.53;5.93;;;;;;;23.03;64.48;101000.88;5045840;28;20052;-63
2021/07/26 09:44:27;;;;;;;5.40;4.93;;;;;;;22.98;64.54;100998.38;4985550;28;20034;-62
2021/07/26 09:46:53;;;;;;;6.60;5.90;;;;;;;22.86;64.19;101003.53;4985502;28;20039;-63
2021/07/26 09:49:20;;;;;;;6.93;6.22;;;;;;;22.75;63.77;100999.56;4985680;28;20070;-62
2021/07/26 09:52:10;;;;;;;7.93;6.35;;;;;;;22.56;65.59;101004.97;4985553;28;20143;-63
2021/07/26 09:54:47;;;;;;;6.40;5.78;;;;;;;22.74;66.04;101000.50;4981540;28;20039;-63
2021/07/26 09:57:20;;;;;;;5.85;5.30;;;;;;;22.95;66.24;101001.22;4985303;28;20236;-63
2021/07/26 09:59:46;;;;;;;6.00;5.43;;;;;;;22.98;65.66;101003.75;4983084;28;20053;-62
2021/07/26 10:02:16;;;;;;;8.90;7.18;;;;;;;22.92;68.65;101001.38;4985361;28;20066;-63
2021/07/26 10:04:42;;;;;;;9.93;6.78;;;;;;;22.93;66.68;101002.25;4985080;28;20046;-63
2021/07/26 10:07:10;;;;;;;9.05;7.80;;;;;;;22.72;67.56;101002.41;4985302;28;20039;-63
2021/07/26 10:09:39;;;;;;;8.68;7.53;;;;;;;22.61;70.15;101002.06;4985132;28;20038;-63
2021/07/26 10:12:05;;;;;;;8.97;7.57;;;;;;;22.62;69.16;101005.59;4985259;28;20515;-62
2021/07/26 10:14:31;;;;;;;8.50;7.60;;;;;;;22.67;68.80;101003.56;4984949;28;20049;-62
2021/07/26 10:17:00;;;;;;;9.00;6.97;;;;;;;22.66;67.59;101007.19;4984696;28;20307;-62
2021/07/26 10:19:26;;;;;;;;;;;;;;;22.47;67.92;101005.41;5042864;28;20045;-63
2021/07/26 10:21:55;;;;;;;10.20;8.27;;;;;;;22.36;68.71;101010.41;5046058;28;19979;-63
2021/07/26 10:24:22;;;;;;;8.63;7.05;;;;;;;22.39;67.25;101015.63;5042906;28;20296;-63
2021/07/26 10:26:48;;;;;;;9.07;7.53;;;;;;;22.20;67.68;101008.44;5044019;28;20037;-65
2021/07/26 10:29:13;;;;;;;12.95;7.68;;;;;;;22.21;68.78;101009.31;5045966;28;20039;-63
2021/07/26 10:31:39;;;;;;;9.68;7.30;;;;;;;22.21;68.37;101006.63;5045698;28;20057;-63
2021/07/26 10:34:08;;;;;;;7.45;6.65;;;;;;;22.19;67.86;100992.44;5045305;28;20105;-63
2021/07/26 10:36:42;;;;;;;7.35;5.90;;;;;;;22.15;66.46;101002.44;5045626;28;20036;-64
2021/07/26 10:39:11;;;;;;;5.18;4.22;;;;;;;22.18;64.17;101007.66;5044447;28;20029;-62
2021/07/26 10:41:43;;;;;;;7.20;4.70;;;;;;;21.99;65.28;101012.16;5045015;28;20053;-63
2021/07/26 10:44:17;;;;;;;8.63;6.60;;;;;;;21.80;69.76;101015.66;5045575;28;20036;-64
2021/07/26 10:46:51;;;;;;;11.63;8.18;;;;;;;21.71;70.00;101015.22;5045318;28;20033;-63
2021/07/26 10:49:17;;;;;;;12.13;8.10;;;;;;;21.71;69.59;101016.06;5045591;28;20037;-63
2021/07/26 10:51:44;;;;;;;13.43;8.00;;;;;;;21.60;71.22;101018.38;5045592;28;20085;-63
2021/07/26 10:54:30;;;;;;;9.32;7.45;;;;;;;21.63;69.47;101022.72;5042991;28;20022;-63
2021/07/26 10:57:02;;;;;;;12.98;7.68;;;;;;;21.51;70.19;101021.44;5033918;28;20048;-64
2021/07/26 10:59:29;;;;;;;9.20;6.25;;;;;;;21.59;70.48;101022.00;5044302;28;20037;-63
2021/07/26 11:02:04;;;;;;;10.05;7.18;;;;;;;21.65;70.92;101018.19;5045572;28;20029;-63
2021/07/26 11:04:40;;;;;;;8.27;7.07;;;;;;;21.73;68.89;101018.69;5045375;28;20138;-62
2021/07/26 11:07:07;;;;;;;7.18;5.88;;;;;;;21.76;68.26;101015.88;5044863;28;20079;-62
2021/07/26 11:09:44;;;;;;;8.57;6.75;;;;;;;21.65;69.53;101016.38;5045299;28;20097;-64
2021/07/26 11:12:10;;;;;;;7.80;6.55;;;;;;;21.85;68.11;101019.94;5045417;28;20026;-63
2021/07/26 11:14:35;;;;;;;7.13;4.63;;;;;;;22.05;66.50;101019.03;5044961;28;20033;-63
2021/07/26 11:17:03;;;;;;;7.07;5.30;;;;;;;22.42;65.98;101026.19;5044914;28;20083;-63